sensor_id;sensor_type;location;lat;lon;timestamp;temperature;humidity
17988;DHT22;9119;50.932;5.342;2023-07-13T00:01:55;19.20;99.90
17988;DHT22;9119;50.932;5.342;2023-07-13T00:04:22;19.20;99.90
17988;DHT22;9119;50.932;5.342;2023-07-13T00:06:49;19.10;99.90
17988;DHT22;9119;50.932;5.342;2023-07-13T00:09:17;19.20;99.90
17988;DHT22;9119;50.932;5.342;2023-07-13T00:11:43;19.10;99.90
17988;DHT22;9119;50.932;5.342;2023-07-13T00:14:10;19.00;99.90
17988;DHT22;9119;50.932;5.342;2023-07-13T00:16:37;18.80;99.90
17988;DHT22;9119;50.932;5.342;2023-07-13T00:19:04;18.90;99.90
17988;DHT22;9119;50.932;5.342;2023-07-13T00:21:30;18.80;99.90
17988;DHT22;9119;50.932;5.342;2023-07-13T00:23:56;18.80;99.90
17988;DHT22;9119;50.932;5.342;2023-07-13T00:26:22;18.70;99.90
17988;DHT22;9119;50.932;5.342;2023-07-13T00:28:48;18.50;99.90
17988;DHT22;9119;50.932;5.342;2023-07-13T00:31:14;18.50;99.90
17988;DHT22;9119;50.932;5.342;2023-07-13T00:33:41;18.40;99.90
17988;DHT22;9119;50.932;5.342;2023-07-13T00:36:08;18.50;99.90
17988;DHT22;9119;50.932;5.342;2023-07-13T00:38:34;18.50;99.90
17988;DHT22;9119;50.932;5.342;2023-07-13T00:41:00;18.40;99.90
17988;DHT22;9119;50.932;5.342;2023-07-13T00:43:27;18.40;99.90
17988;DHT22;9119;50.932;5.342;2023-07-13T00:48:21;18.30;99.90
17988;DHT22;9119;50.932;5.342;2023-07-13T00:50:51;18.30;99.90
17988;DHT22;9119;50.932;5.342;2023-07-13T00:53:18;18.40;99.90
17988;DHT22;9119;50.932;5.342;2023-07-13T00:55:45;18.50;99.90
17988;DHT22;9119;50.932;5.342;2023-07-13T00:58:11;18.50;99.90
17988;DHT22;9119;50.932;5.342;2023-07-13T01:00:38;18.30;99.90
17988;DHT22;9119;50.932;5.342;2023-07-13T01:03:04;18.30;99.90
17988;DHT22;9119;50.932;5.342;2023-07-13T01:05:33;18.40;99.90
17988;DHT22;9119;50.932;5.342;2023-07-13T01:07:59;18.30;99.90
17988;DHT22;9119;50.932;5.342;2023-07-13T01:10:26;18.20;99.90
17988;DHT22;9119;50.932;5.342;2023-07-13T01:12:53;18.20;99.90
17988;DHT22;9119;50.932;5.342;2023-07-13T01:15:42;18.20;99.90
17988;DHT22;9119;50.932;5.342;2023-07-13T01:18:23;18.20;99.90
17988;DHT22;9119;50.932;5.342;2023-07-13T01:20:56;18.20;99.90
17988;DHT22;9119;50.932;5.342;2023-07-13T01:23:23;18.10;99.90
17988;DHT22;9119;50.932;5.342;2023-07-13T01:25:50;18.10;99.90
17988;DHT22;9119;50.932;5.342;2023-07-13T01:28:16;18.10;99.90
17988;DHT22;9119;50.932;5.342;2023-07-13T01:30:43;18.10;99.90
17988;DHT22;9119;50.932;5.342;2023-07-13T01:33:15;18.10;99.90
17988;DHT22;9119;50.932;5.342;2023-07-13T01:35:42;18.00;99.90
17988;DHT22;9119;50.932;5.342;2023-07-13T01:38:08;18.10;99.90
17988;DHT22;9119;50.932;5.342;2023-07-13T01:40:34;18.10;99.90
17988;DHT22;9119;50.932;5.342;2023-07-13T01:43:00;18.00;99.90
17988;DHT22;9119;50.932;5.342;2023-07-13T01:45:26;18.00;99.90
17988;DHT22;9119;50.932;5.342;2023-07-13T01:47:52;17.80;99.90
17988;DHT22;9119;50.932;5.342;2023-07-13T01:50:17;17.90;99.90
17988;DHT22;9119;50.932;5.342;2023-07-13T01:52:43;17.90;99.90
17988;DHT22;9119;50.932;5.342;2023-07-13T01:55:09;17.90;99.90
17988;DHT22;9119;50.932;5.342;2023-07-13T01:57:35;18.00;99.90
17988;DHT22;9119;50.932;5.342;2023-07-13T02:00:06;18.00;99.90
17988;DHT22;9119;50.932;5.342;2023-07-13T02:02:32;17.90;99.90
17988;DHT22;9119;50.932;5.342;2023-07-13T02:04:57;17.90;99.90
17988;DHT22;9119;50.932;5.342;2023-07-13T02:07:23;17.90;99.90
17988;DHT22;9119;50.932;5.342;2023-07-13T02:09:49;17.90;99.90
17988;DHT22;9119;50.932;5.342;2023-07-13T02:12:14;17.90;99.90
17988;DHT22;9119;50.932;5.342;2023-07-13T02:14:40;17.70;99.90
17988;DHT22;9119;50.932;5.342;2023-07-13T02:17:06;17.80;99.90
17988;DHT22;9119;50.932;5.342;2023-07-13T02:19:32;17.90;99.90
17988;DHT22;9119;50.932;5.342;2023-07-13T02:21:58;17.80;99.90
17988;DHT22;9119;50.932;5.342;2023-07-13T02:24:23;17.80;99.90
17988;DHT22;9119;50.932;5.342;2023-07-13T02:26:49;17.80;99.90
17988;DHT22;9119;50.932;5.342;2023-07-13T02:29:15;17.80;99.90
17988;DHT22;9119;50.932;5.342;2023-07-13T02:31:41;17.80;99.90
17988;DHT22;9119;50.932;5.342;2023-07-13T02:34:06;17.80;99.90
17988;DHT22;9119;50.932;5.342;2023-07-13T02:36:32;17.80;99.90
17988;DHT22;9119;50.932;5.342;2023-07-13T02:39:03;17.80;99.90
17988;DHT22;9119;50.932;5.342;2023-07-13T02:41:29;17.60;99.90
17988;DHT22;9119;50.932;5.342;2023-07-13T02:43:55;17.50;99.90
17988;DHT22;9119;50.932;5.342;2023-07-13T02:46:29;17.50;99.90
17988;DHT22;9119;50.932;5.342;2023-07-13T02:48:54;17.40;99.90
17988;DHT22;9119;50.932;5.342;2023-07-13T02:51:20;17.50;99.90
17988;DHT22;9119;50.932;5.342;2023-07-13T02:53:46;17.50;99.90
17988;DHT22;9119;50.932;5.342;2023-07-13T02:56:12;17.30;99.90
17988;DHT22;9119;50.932;5.342;2023-07-13T02:58:37;17.30;99.90
17988;DHT22;9119;50.932;5.342;2023-07-13T03:01:09;17.30;99.90
17988;DHT22;9119;50.932;5.342;2023-07-13T03:03:35;17.30;99.90
17988;DHT22;9119;50.932;5.342;2023-07-13T03:06:02;17.20;99.90
17988;DHT22;9119;50.932;5.342;2023-07-13T03:08:29;17.10;99.90
17988;DHT22;9119;50.932;5.342;2023-07-13T03:11:09;17.20;99.90
17988;DHT22;9119;50.932;5.342;2023-07-13T03:13:37;17.20;99.90
17988;DHT22;9119;50.932;5.342;2023-07-13T03:16:03;17.20;99.90
17988;DHT22;9119;50.932;5.342;2023-07-13T03:18:29;17.10;99.90
17988;DHT22;9119;50.932;5.342;2023-07-13T03:20:55;17.20;99.90
17988;DHT22;9119;50.932;5.342;2023-07-13T03:23:22;17.20;99.90
17988;DHT22;9119;50.932;5.342;2023-07-13T03:25:48;17.20;99.90
17988;DHT22;9119;50.932;5.342;2023-07-13T03:28:15;17.20;99.90
17988;DHT22;9119;50.932;5.342;2023-07-13T03:30:41;17.10;99.90
17988;DHT22;9119;50.932;5.342;2023-07-13T03:33:07;17.00;99.90
17988;DHT22;9119;50.932;5.342;2023-07-13T03:35:34;17.10;99.90
17988;DHT22;9119;50.932;5.342;2023-07-13T03:37:59;17.00;99.90
17988;DHT22;9119;50.932;5.342;2023-07-13T03:40:26;17.00;99.90
17988;DHT22;9119;50.932;5.342;2023-07-13T03:42:52;17.10;99.90
17988;DHT22;9119;50.932;5.342;2023-07-13T03:45:18;17.10;99.90
17988;DHT22;9119;50.932;5.342;2023-07-13T03:47:44;17.00;99.90
17988;DHT22;9119;50.932;5.342;2023-07-13T03:50:10;17.10;99.90
17988;DHT22;9119;50.932;5.342;2023-07-13T03:52:36;17.20;99.90
17988;DHT22;9119;50.932;5.342;2023-07-13T03:55:01;17.20;99.90
17988;DHT22;9119;50.932;5.342;2023-07-13T03:57:27;17.20;99.90
17988;DHT22;9119;50.932;5.342;2023-07-13T03:59:53;17.20;99.90
17988;DHT22;9119;50.932;5.342;2023-07-13T04:02:18;17.30;99.90
17988;DHT22;9119;50.932;5.342;2023-07-13T04:04:44;17.10;99.90
17988;DHT22;9119;50.932;5.342;2023-07-13T04:07:10;17.10;99.90
17988;DHT22;9119;50.932;5.342;2023-07-13T04:09:38;17.20;99.90
17988;DHT22;9119;50.932;5.342;2023-07-13T04:12:04;17.20;99.90
17988;DHT22;9119;50.932;5.342;2023-07-13T04:14:30;17.20;99.90
17988;DHT22;9119;50.932;5.342;2023-07-13T04:16:55;17.10;99.90
17988;DHT22;9119;50.932;5.342;2023-07-13T04:19:21;17.00;99.90
17988;DHT22;9119;50.932;5.342;2023-07-13T04:21:47;17.00;99.90
17988;DHT22;9119;50.932;5.342;2023-07-13T04:24:13;17.10;99.90
17988;DHT22;9119;50.932;5.342;2023-07-13T04:26:39;17.10;99.90
17988;DHT22;9119;50.932;5.342;2023-07-13T04:29:06;17.10;99.90
17988;DHT22;9119;50.932;5.342;2023-07-13T04:31:32;17.20;99.90
17988;DHT22;9119;50.932;5.342;2023-07-13T04:33:58;17.10;99.90
17988;DHT22;9119;50.932;5.342;2023-07-13T04:36:24;17.20;99.90
17988;DHT22;9119;50.932;5.342;2023-07-13T04:38:52;17.30;99.90
17988;DHT22;9119;50.932;5.342;2023-07-13T04:41:19;17.30;99.90
17988;DHT22;9119;50.932;5.342;2023-07-13T04:43:45;17.40;99.90
17988;DHT22;9119;50.932;5.342;2023-07-13T04:46:14;17.50;99.90
17988;DHT22;9119;50.932;5.342;2023-07-13T04:48:40;17.50;99.90
17988;DHT22;9119;50.932;5.342;2023-07-13T04:51:06;17.50;99.90
17988;DHT22;9119;50.932;5.342;2023-07-13T04:53:32;17.50;99.90
17988;DHT22;9119;50.932;5.342;2023-07-13T04:56:00;17.60;99.90
17988;DHT22;9119;50.932;5.342;2023-07-13T04:58:26;17.70;99.90
17988;DHT22;9119;50.932;5.342;2023-07-13T05:00:52;17.70;99.90
17988;DHT22;9119;50.932;5.342;2023-07-13T05:03:18;17.70;99.90
17988;DHT22;9119;50.932;5.342;2023-07-13T05:05:54;17.50;99.90
17988;DHT22;9119;50.932;5.342;2023-07-13T05:08:20;17.60;99.90
17988;DHT22;9119;50.932;5.342;2023-07-13T05:10:46;17.60;99.90
17988;DHT22;9119;50.932;5.342;2023-07-13T05:13:12;17.60;99.90
17988;DHT22;9119;50.932;5.342;2023-07-13T05:15:37;17.70;99.90
17988;DHT22;9119;50.932;5.342;2023-07-13T05:18:03;17.40;99.90
17988;DHT22;9119;50.932;5.342;2023-07-13T05:20:29;17.30;99.90
17988;DHT22;9119;50.932;5.342;2023-07-13T05:22:55;17.40;99.90
17988;DHT22;9119;50.932;5.342;2023-07-13T05:25:20;17.50;99.90
17988;DHT22;9119;50.932;5.342;2023-07-13T05:27:47;17.60;99.90
17988;DHT22;9119;50.932;5.342;2023-07-13T05:30:13;17.60;99.90
17988;DHT22;9119;50.932;5.342;2023-07-13T05:32:39;17.70;99.90
17988;DHT22;9119;50.932;5.342;2023-07-13T05:35:05;17.70;99.90
17988;DHT22;9119;50.932;5.342;2023-07-13T05:37:31;17.80;99.90
17988;DHT22;9119;50.932;5.342;2023-07-13T05:39:57;17.70;99.90
17988;DHT22;9119;50.932;5.342;2023-07-13T05:42:22;17.70;99.90
17988;DHT22;9119;50.932;5.342;2023-07-13T05:44:48;17.70;99.90
17988;DHT22;9119;50.932;5.342;2023-07-13T05:47:13;17.80;99.90
17988;DHT22;9119;50.932;5.342;2023-07-13T05:49:40;17.80;99.90
17988;DHT22;9119;50.932;5.342;2023-07-13T05:52:06;17.90;99.90
17988;DHT22;9119;50.932;5.342;2023-07-13T05:54:32;17.80;99.90
17988;DHT22;9119;50.932;5.342;2023-07-13T05:56:58;17.80;99.90
17988;DHT22;9119;50.932;5.342;2023-07-13T05:59:23;17.70;99.90
17988;DHT22;9119;50.932;5.342;2023-07-13T06:01:49;17.70;99.90
17988;DHT22;9119;50.932;5.342;2023-07-13T06:04:17;17.80;99.90
17988;DHT22;9119;50.932;5.342;2023-07-13T06:06:43;17.90;99.90
17988;DHT22;9119;50.932;5.342;2023-07-13T06:09:09;18.00;99.90
17988;DHT22;9119;50.932;5.342;2023-07-13T06:11:34;17.80;99.90
17988;DHT22;9119;50.932;5.342;2023-07-13T06:14:00;17.90;99.90
17988;DHT22;9119;50.932;5.342;2023-07-13T06:16:26;18.00;99.90
17988;DHT22;9119;50.932;5.342;2023-07-13T06:18:51;18.10;99.90
17988;DHT22;9119;50.932;5.342;2023-07-13T06:21:19;18.30;99.90
17988;DHT22;9119;50.932;5.342;2023-07-13T06:23:47;18.40;99.90
17988;DHT22;9119;50.932;5.342;2023-07-13T06:26:19;18.40;99.90
17988;DHT22;9119;50.932;5.342;2023-07-13T06:28:46;18.40;99.90
17988;DHT22;9119;50.932;5.342;2023-07-13T06:31:13;18.50;99.90
17988;DHT22;9119;50.932;5.342;2023-07-13T06:33:39;18.50;99.90
17988;DHT22;9119;50.932;5.342;2023-07-13T06:36:06;18.50;99.90
17988;DHT22;9119;50.932;5.342;2023-07-13T06:38:33;18.50;99.90
17988;DHT22;9119;50.932;5.342;2023-07-13T06:40:59;18.60;99.90
17988;DHT22;9119;50.932;5.342;2023-07-13T06:43:24;18.70;99.90
17988;DHT22;9119;50.932;5.342;2023-07-13T06:45:50;18.80;99.90
17988;DHT22;9119;50.932;5.342;2023-07-13T06:48:17;18.80;99.90
17988;DHT22;9119;50.932;5.342;2023-07-13T06:50:43;18.80;99.90
17988;DHT22;9119;50.932;5.342;2023-07-13T06:53:10;19.10;99.90
17988;DHT22;9119;50.932;5.342;2023-07-13T06:55:36;18.90;99.90
17988;DHT22;9119;50.932;5.342;2023-07-13T06:58:02;19.00;99.90
17988;DHT22;9119;50.932;5.342;2023-07-13T07:00:28;19.00;99.90
17988;DHT22;9119;50.932;5.342;2023-07-13T07:02:54;19.00;99.90
17988;DHT22;9119;50.932;5.342;2023-07-13T07:05:19;19.10;99.90
17988;DHT22;9119;50.932;5.342;2023-07-13T07:07:51;19.10;99.90
17988;DHT22;9119;50.932;5.342;2023-07-13T07:10:18;19.10;99.90
17988;DHT22;9119;50.932;5.342;2023-07-13T07:12:43;19.10;99.90
17988;DHT22;9119;50.932;5.342;2023-07-13T07:15:09;19.40;99.90
17988;DHT22;9119;50.932;5.342;2023-07-13T07:17:35;19.30;99.90
17988;DHT22;9119;50.932;5.342;2023-07-13T07:20:02;19.20;99.90
17988;DHT22;9119;50.932;5.342;2023-07-13T07:22:29;19.30;99.90
17988;DHT22;9119;50.932;5.342;2023-07-13T07:24:56;19.40;99.90
17988;DHT22;9119;50.932;5.342;2023-07-13T07:27:22;19.40;99.90
17988;DHT22;9119;50.932;5.342;2023-07-13T07:29:48;19.40;99.90
17988;DHT22;9119;50.932;5.342;2023-07-13T07:32:13;19.50;99.90
17988;DHT22;9119;50.932;5.342;2023-07-13T07:34:39;19.50;99.90
17988;DHT22;9119;50.932;5.342;2023-07-13T07:37:05;19.60;99.90
17988;DHT22;9119;50.932;5.342;2023-07-13T07:39:31;19.60;99.90
17988;DHT22;9119;50.932;5.342;2023-07-13T07:41:57;19.60;99.90
17988;DHT22;9119;50.932;5.342;2023-07-13T07:44:23;19.60;99.90
17988;DHT22;9119;50.932;5.342;2023-07-13T07:46:48;19.70;99.90
17988;DHT22;9119;50.932;5.342;2023-07-13T07:49:14;19.70;99.90
17988;DHT22;9119;50.932;5.342;2023-07-13T07:51:40;19.70;99.90
17988;DHT22;9119;50.932;5.342;2023-07-13T07:54:06;19.90;99.90
17988;DHT22;9119;50.932;5.342;2023-07-13T07:56:32;20.00;99.90
17988;DHT22;9119;50.932;5.342;2023-07-13T07:58:58;20.10;99.90
17988;DHT22;9119;50.932;5.342;2023-07-13T08:01:24;20.10;99.90
17988;DHT22;9119;50.932;5.342;2023-07-13T08:03:49;20.20;99.90
17988;DHT22;9119;50.932;5.342;2023-07-13T08:06:15;20.10;99.90
17988;DHT22;9119;50.932;5.342;2023-07-13T08:08:41;19.90;99.90
17988;DHT22;9119;50.932;5.342;2023-07-13T08:11:08;20.10;99.90
17988;DHT22;9119;50.932;5.342;2023-07-13T08:13:34;20.30;99.90
17988;DHT22;9119;50.932;5.342;2023-07-13T08:16:00;20.00;99.90
17988;DHT22;9119;50.932;5.342;2023-07-13T08:18:26;20.20;99.90
17988;DHT22;9119;50.932;5.342;2023-07-13T08:20:53;20.60;99.90
17988;DHT22;9119;50.932;5.342;2023-07-13T08:23:22;20.70;99.90
17988;DHT22;9119;50.932;5.342;2023-07-13T08:25:52;20.70;99.90
17988;DHT22;9119;50.932;5.342;2023-07-13T08:28:22;20.80;99.90
17988;DHT22;9119;50.932;5.342;2023-07-13T08:30:48;20.50;99.90
17988;DHT22;9119;50.932;5.342;2023-07-13T08:33:16;20.50;99.90
17988;DHT22;9119;50.932;5.342;2023-07-13T08:35:41;20.80;99.90
17988;DHT22;9119;50.932;5.342;2023-07-13T08:38:07;20.80;99.90
17988;DHT22;9119;50.932;5.342;2023-07-13T08:40:33;20.80;99.90
17988;DHT22;9119;50.932;5.342;2023-07-13T08:42:59;20.50;99.90
17988;DHT22;9119;50.932;5.342;2023-07-13T08:45:28;20.40;99.90
17988;DHT22;9119;50.932;5.342;2023-07-13T08:48:16;20.40;99.90
17988;DHT22;9119;50.932;5.342;2023-07-13T08:53:55;20.60;99.90
17988;DHT22;9119;50.932;5.342;2023-07-13T08:56:27;21.10;99.90
17988;DHT22;9119;50.932;5.342;2023-07-13T08:58:57;21.00;99.90
17988;DHT22;9119;50.932;5.342;2023-07-13T09:04:35;21.20;99.90
17988;DHT22;9119;50.932;5.342;2023-07-13T09:12:12;21.40;99.90
17988;DHT22;9119;50.932;5.342;2023-07-13T09:14:42;21.40;99.90
17988;DHT22;9119;50.932;5.342;2023-07-13T09:17:33;21.40;99.90
17988;DHT22;9119;50.932;5.342;2023-07-13T09:20:12;21.50;99.90
17988;DHT22;9119;50.932;5.342;2023-07-13T09:22:42;21.80;99.90
17988;DHT22;9119;50.932;5.342;2023-07-13T09:27:40;22.00;99.90
17988;DHT22;9119;50.932;5.342;2023-07-13T09:32:50;21.80;99.90
17988;DHT22;9119;50.932;5.342;2023-07-13T09:35:20;21.80;99.90
17988;DHT22;9119;50.932;5.342;2023-07-13T09:37:47;21.60;99.90
17988;DHT22;9119;50.932;5.342;2023-07-13T09:40:35;21.70;99.90
17988;DHT22;9119;50.932;5.342;2023-07-13T09:43:04;21.80;99.90
17988;DHT22;9119;50.932;5.342;2023-07-13T09:45:33;21.60;99.90
17988;DHT22;9119;50.932;5.342;2023-07-13T09:48:10;22.00;99.90
17988;DHT22;9119;50.932;5.342;2023-07-13T09:50:38;22.00;99.90
17988;DHT22;9119;50.932;5.342;2023-07-13T09:53:03;21.70;99.90
17988;DHT22;9119;50.932;5.342;2023-07-13T09:55:40;21.70;99.90
17988;DHT22;9119;50.932;5.342;2023-07-13T10:00:44;21.80;99.90
17988;DHT22;9119;50.932;5.342;2023-07-13T10:03:30;22.30;99.90
17988;DHT22;9119;50.932;5.342;2023-07-13T10:06:12;23.00;99.90
17988;DHT22;9119;50.932;5.342;2023-07-13T10:08:38;23.70;99.90
17988;DHT22;9119;50.932;5.342;2023-07-13T10:11:14;23.60;99.90
17988;DHT22;9119;50.932;5.342;2023-07-13T10:16:22;22.70;99.90
17988;DHT22;9119;50.932;5.342;2023-07-13T10:19:00;22.90;99.90
17988;DHT22;9119;50.932;5.342;2023-07-13T10:21:32;23.50;99.90
17988;DHT22;9119;50.932;5.342;2023-07-13T10:26:52;24.60;99.90
17988;DHT22;9119;50.932;5.342;2023-07-13T10:29:20;25.00;99.90
17988;DHT22;9119;50.932;5.342;2023-07-13T10:31:47;25.00;99.90
17988;DHT22;9119;50.932;5.342;2023-07-13T10:34:13;23.90;99.90
17988;DHT22;9119;50.932;5.342;2023-07-13T10:36:45;23.00;99.90
17988;DHT22;9119;50.932;5.342;2023-07-13T10:39:18;22.70;99.90
17988;DHT22;9119;50.932;5.342;2023-07-13T10:41:48;23.00;99.90
17988;DHT22;9119;50.932;5.342;2023-07-13T10:44:21;23.60;99.90
17988;DHT22;9119;50.932;5.342;2023-07-13T10:46:55;23.80;99.90
17988;DHT22;9119;50.932;5.342;2023-07-13T10:49:23;23.10;99.90
17988;DHT22;9119;50.932;5.342;2023-07-13T10:51:49;22.90;99.90
17988;DHT22;9119;50.932;5.342;2023-07-13T10:54:18;22.90;99.90
17988;DHT22;9119;50.932;5.342;2023-07-13T10:56:45;22.70;99.90
17988;DHT22;9119;50.932;5.342;2023-07-13T10:59:27;22.70;99.90
17988;DHT22;9119;50.932;5.342;2023-07-13T11:01:58;22.40;99.90
17988;DHT22;9119;50.932;5.342;2023-07-13T11:04:27;23.20;99.90
17988;DHT22;9119;50.932;5.342;2023-07-13T11:06:59;23.60;99.90
17988;DHT22;9119;50.932;5.342;2023-07-13T11:09:40;24.00;99.90
17988;DHT22;9119;50.932;5.342;2023-07-13T11:15:01;25.50;99.90
17988;DHT22;9119;50.932;5.342;2023-07-13T11:17:53;25.30;99.90
17988;DHT22;9119;50.932;5.342;2023-07-13T11:20:38;25.50;99.90
17988;DHT22;9119;50.932;5.342;2023-07-13T11:23:17;25.20;99.90
17988;DHT22;9119;50.932;5.342;2023-07-13T11:25:44;24.80;99.90
17988;DHT22;9119;50.932;5.342;2023-07-13T11:33:22;25.20;99.90
17988;DHT22;9119;50.932;5.342;2023-07-13T11:38:20;24.60;99.90
17988;DHT22;9119;50.932;5.342;2023-07-13T11:40:48;24.60;99.90
17988;DHT22;9119;50.932;5.342;2023-07-13T11:43:16;24.80;99.90
17988;DHT22;9119;50.932;5.342;2023-07-13T11:45:43;25.20;99.90
17988;DHT22;9119;50.932;5.342;2023-07-13T11:48:26;25.10;99.90
17988;DHT22;9119;50.932;5.342;2023-07-13T11:51:01;25.40;99.90
17988;DHT22;9119;50.932;5.342;2023-07-13T11:53:35;25.20;99.90
17988;DHT22;9119;50.932;5.342;2023-07-13T11:56:02;25.50;99.90
17988;DHT22;9119;50.932;5.342;2023-07-13T11:58:28;26.00;99.90
17988;DHT22;9119;50.932;5.342;2023-07-13T12:00:56;26.40;99.90
17988;DHT22;9119;50.932;5.342;2023-07-13T12:03:25;26.00;99.90
17988;DHT22;9119;50.932;5.342;2023-07-13T12:06:05;26.10;99.90
17988;DHT22;9119;50.932;5.342;2023-07-13T12:08:32;26.60;99.90
17988;DHT22;9119;50.932;5.342;2023-07-13T12:11:05;27.20;99.90
17988;DHT22;9119;50.932;5.342;2023-07-13T12:13:36;26.50;99.90
17988;DHT22;9119;50.932;5.342;2023-07-13T12:16:29;26.20;99.90
17988;DHT22;9119;50.932;5.342;2023-07-13T12:18:55;26.30;99.90
17988;DHT22;9119;50.932;5.342;2023-07-13T12:21:33;26.00;99.90
17988;DHT22;9119;50.932;5.342;2023-07-13T12:24:00;25.70;99.90
17988;DHT22;9119;50.932;5.342;2023-07-13T12:26:28;25.90;99.90
17988;DHT22;9119;50.932;5.342;2023-07-13T12:28:58;25.70;99.90
17988;DHT22;9119;50.932;5.342;2023-07-13T12:31:36;25.10;99.90
17988;DHT22;9119;50.932;5.342;2023-07-13T12:34:10;25.70;99.90
17988;DHT22;9119;50.932;5.342;2023-07-13T12:36:51;26.50;99.90
17988;DHT22;9119;50.932;5.342;2023-07-13T12:39:32;27.00;99.90
17988;DHT22;9119;50.932;5.342;2023-07-13T12:44:41;27.70;99.90
17988;DHT22;9119;50.932;5.342;2023-07-13T12:47:11;27.20;99.90
17988;DHT22;9119;50.932;5.342;2023-07-13T12:49:42;26.60;99.90
17988;DHT22;9119;50.932;5.342;2023-07-13T12:52:17;25.70;99.90
17988;DHT22;9119;50.932;5.342;2023-07-13T12:54:56;25.10;99.90
17988;DHT22;9119;50.932;5.342;2023-07-13T12:57:23;24.90;99.90
17988;DHT22;9119;50.932;5.342;2023-07-13T12:59:52;24.80;99.90
17988;DHT22;9119;50.932;5.342;2023-07-13T13:02:33;24.90;99.90
17988;DHT22;9119;50.932;5.342;2023-07-13T13:05:00;24.70;99.90
17988;DHT22;9119;50.932;5.342;2023-07-13T13:07:28;24.50;99.90
17988;DHT22;9119;50.932;5.342;2023-07-13T13:09:55;24.40;99.90
17988;DHT22;9119;50.932;5.342;2023-07-13T13:12:22;24.40;99.90
17988;DHT22;9119;50.932;5.342;2023-07-13T13:14:51;24.20;99.90
17988;DHT22;9119;50.932;5.342;2023-07-13T13:17:29;24.30;99.90
17988;DHT22;9119;50.932;5.342;2023-07-13T13:19:56;24.50;99.90
17988;DHT22;9119;50.932;5.342;2023-07-13T13:22:22;24.40;99.90
17988;DHT22;9119;50.932;5.342;2023-07-13T13:24:48;24.30;99.90
17988;DHT22;9119;50.932;5.342;2023-07-13T13:27:18;24.10;99.90
17988;DHT22;9119;50.932;5.342;2023-07-13T13:29:45;23.70;99.90
17988;DHT22;9119;50.932;5.342;2023-07-13T13:32:14;23.10;99.90
17988;DHT22;9119;50.932;5.342;2023-07-13T13:34:41;22.40;99.90
17988;DHT22;9119;50.932;5.342;2023-07-13T13:37:20;21.50;99.90
17988;DHT22;9119;50.932;5.342;2023-07-13T13:39:46;20.90;99.90
17988;DHT22;9119;50.932;5.342;2023-07-13T13:42:12;21.00;99.90
17988;DHT22;9119;50.932;5.342;2023-07-13T13:44:39;20.60;99.90
17988;DHT22;9119;50.932;5.342;2023-07-13T13:47:33;20.30;99.90
17988;DHT22;9119;50.932;5.342;2023-07-13T13:49:58;20.20;99.90
17988;DHT22;9119;50.932;5.342;2023-07-13T13:52:25;20.20;99.90
17988;DHT22;9119;50.932;5.342;2023-07-13T13:54:52;19.70;99.90
17988;DHT22;9119;50.932;5.342;2023-07-13T13:57:24;20.00;99.90
17988;DHT22;9119;50.932;5.342;2023-07-13T13:59:53;19.90;99.90
17988;DHT22;9119;50.932;5.342;2023-07-13T14:02:27;19.80;99.90
17988;DHT22;9119;50.932;5.342;2023-07-13T14:05:02;19.90;99.90
17988;DHT22;9119;50.932;5.342;2023-07-13T14:07:28;20.20;99.90
17988;DHT22;9119;50.932;5.342;2023-07-13T14:09:57;20.20;99.90
17988;DHT22;9119;50.932;5.342;2023-07-13T14:12:23;19.90;99.90
17988;DHT22;9119;50.932;5.342;2023-07-13T14:14:54;19.80;99.90
17988;DHT22;9119;50.932;5.342;2023-07-13T14:17:24;20.30;99.90
17988;DHT22;9119;50.932;5.342;2023-07-13T14:19:51;20.60;99.90
17988;DHT22;9119;50.932;5.342;2023-07-13T14:22:25;20.80;99.90
17988;DHT22;9119;50.932;5.342;2023-07-13T14:24:54;21.00;99.90
17988;DHT22;9119;50.932;5.342;2023-07-13T14:27:20;20.80;99.90
17988;DHT22;9119;50.932;5.342;2023-07-13T14:29:46;20.70;99.90
17988;DHT22;9119;50.932;5.342;2023-07-13T14:32:12;20.60;99.90
17988;DHT22;9119;50.932;5.342;2023-07-13T14:34:39;20.40;99.90
17988;DHT22;9119;50.932;5.342;2023-07-13T14:37:05;20.70;99.90
17988;DHT22;9119;50.932;5.342;2023-07-13T14:39:31;20.70;99.90
17988;DHT22;9119;50.932;5.342;2023-07-13T14:41:57;20.80;99.90
17988;DHT22;9119;50.932;5.342;2023-07-13T14:44:30;21.10;99.90
17988;DHT22;9119;50.932;5.342;2023-07-13T14:47:02;21.40;99.90
17988;DHT22;9119;50.932;5.342;2023-07-13T14:49:43;21.30;99.90
17988;DHT22;9119;50.932;5.342;2023-07-13T14:52:14;21.40;99.90
17988;DHT22;9119;50.932;5.342;2023-07-13T14:54:41;21.50;99.90
17988;DHT22;9119;50.932;5.342;2023-07-13T14:57:16;21.80;99.90
17988;DHT22;9119;50.932;5.342;2023-07-13T14:59:44;22.20;99.90
17988;DHT22;9119;50.932;5.342;2023-07-13T15:02:23;23.00;99.90
17988;DHT22;9119;50.932;5.342;2023-07-13T15:04:51;23.80;99.90
17988;DHT22;9119;50.932;5.342;2023-07-13T15:07:17;24.40;99.90
17988;DHT22;9119;50.932;5.342;2023-07-13T15:09:44;24.20;99.90
17988;DHT22;9119;50.932;5.342;2023-07-13T15:12:10;24.20;99.90
17988;DHT22;9119;50.932;5.342;2023-07-13T15:14:36;23.70;99.90
17988;DHT22;9119;50.932;5.342;2023-07-13T15:17:01;23.60;99.90
17988;DHT22;9119;50.932;5.342;2023-07-13T15:19:27;23.40;99.90
17988;DHT22;9119;50.932;5.342;2023-07-13T15:21:55;23.80;99.90
17988;DHT22;9119;50.932;5.342;2023-07-13T15:24:23;24.30;99.90
17988;DHT22;9119;50.932;5.342;2023-07-13T15:26:49;24.50;99.90
17988;DHT22;9119;50.932;5.342;2023-07-13T15:29:16;25.00;99.90
17988;DHT22;9119;50.932;5.342;2023-07-13T15:31:42;24.90;99.90
17988;DHT22;9119;50.932;5.342;2023-07-13T15:34:24;24.80;99.90
17988;DHT22;9119;50.932;5.342;2023-07-13T15:36:51;25.70;99.90
17988;DHT22;9119;50.932;5.342;2023-07-13T15:39:17;25.10;99.90
17988;DHT22;9119;50.932;5.342;2023-07-13T15:41:44;25.20;99.90
17988;DHT22;9119;50.932;5.342;2023-07-13T15:44:43;25.60;99.90
17988;DHT22;9119;50.932;5.342;2023-07-13T15:47:13;25.80;99.90
17988;DHT22;9119;50.932;5.342;2023-07-13T15:49:40;26.20;99.90
17988;DHT22;9119;50.932;5.342;2023-07-13T15:52:17;26.30;99.90
17988;DHT22;9119;50.932;5.342;2023-07-13T15:54:43;26.10;99.90
17988;DHT22;9119;50.932;5.342;2023-07-13T15:57:10;26.00;99.90
17988;DHT22;9119;50.932;5.342;2023-07-13T15:59:37;26.10;99.90
17988;DHT22;9119;50.932;5.342;2023-07-13T16:02:17;26.30;99.90
17988;DHT22;9119;50.932;5.342;2023-07-13T16:04:43;25.60;99.90
17988;DHT22;9119;50.932;5.342;2023-07-13T16:07:10;25.00;99.90
17988;DHT22;9119;50.932;5.342;2023-07-13T16:09:37;24.50;99.90
17988;DHT22;9119;50.932;5.342;2023-07-13T16:12:09;24.30;99.90
17988;DHT22;9119;50.932;5.342;2023-07-13T16:14:35;24.30;99.90
17988;DHT22;9119;50.932;5.342;2023-07-13T16:17:01;24.10;99.90
17988;DHT22;9119;50.932;5.342;2023-07-13T16:19:27;24.30;99.90
17988;DHT22;9119;50.932;5.342;2023-07-13T16:21:55;24.20;99.90
17988;DHT22;9119;50.932;5.342;2023-07-13T16:24:22;24.20;99.90
17988;DHT22;9119;50.932;5.342;2023-07-13T16:26:51;24.10;99.90
17988;DHT22;9119;50.932;5.342;2023-07-13T16:29:26;24.10;99.90
17988;DHT22;9119;50.932;5.342;2023-07-13T16:32:04;24.00;99.90
17988;DHT22;9119;50.932;5.342;2023-07-13T16:34:36;24.10;99.90